Sheridan, Illinois
Current Conditions -  °F | °C
As of 9:55 AM on Sunday 25 Jan 2015 (Local Time) from KC09 Reporting Station
Light Snow Light Snow  
Wind Chill: 26°   Ceiling: 700
Heat Index: 33°   Visibility: 2.5mi
Dew Point: 33°   Wind: 8mph
Humidity: 100%   Direction: 50°NE
Pressure: 29.72"   Gusts: NA
Location:  41.53°N, 88.68°W
Report Text: KC09 251555Z AUTO 05007KT 2 1/2SM -SN OVC007 01/01 A2972 RMK AO2 T00050005
Loading
Personal Weather Stations






























Interactive Weather Map New forecast layout! Learn more

10-Day Weather Forecast

Advertisements
Track Severe Weather on mobile